Time;durP1;ratioP1;P1;durP2;ratioP2;P2;SDS_P1;SDS_P2;PMS_P1;PMS_P2;Temp;Humidity;BMP_temperature;BMP_pressure;BME280_temperature;BME280_humidity;BME280_pressure;Samples;Min_cycle;Max_cycle;Signal;HPM_P1;HPM_P2
2023/03/10 00:01:28;;;;;;;18.30;13.40;;;7.20;99.90;;;;;;6241270;22;20372;-78
2023/03/10 00:03:57;;;;;;;18.05;13.30;;;7.10;99.90;;;;;;6241641;23;20369;-79
2023/03/10 00:06:26;;;;;;;21.40;15.05;;;7.10;99.90;;;;;;6241006;22;20360;-79
2023/03/10 00:08:53;;;;;;;17.80;13.57;;;7.00;99.90;;;;;;6241573;23;20404;-79
2023/03/10 00:11:21;;;;;;;15.95;12.57;;;7.00;99.90;;;;;;6242647;22;20376;-79
2023/03/10 00:13:48;;;;;;;16.38;12.75;;;7.00;99.90;;;;;;6241600;23;20361;-79
2023/03/10 00:16:23;;;;;;;20.90;14.65;;;7.10;99.90;;;;;;6241227;22;20356;-78
2023/03/10 00:18:51;;;;;;;19.05;12.88;;;7.10;99.90;;;;;;6241785;23;20756;-78
2023/03/10 00:21:22;;;;;;;15.73;11.07;;;7.10;99.90;;;;;;6240833;22;20365;-78
2023/03/10 00:23:49;;;;;;;14.20;10.18;;;7.20;99.90;;;;;;6241170;23;20379;-78
2023/03/10 00:26:18;;;;;;;14.23;9.93;;;7.20;99.90;;;;;;6241042;22;20369;-78
2023/03/10 00:28:46;;;;;;;15.43;10.00;;;7.20;99.90;;;;;;6240692;23;20381;-78
2023/03/10 00:31:18;;;;;;;17.23;13.02;;;7.30;99.90;;;;;;6240608;22;20399;-79
2023/03/10 00:33:46;;;;;;;15.60;12.18;;;7.40;99.90;;;;;;6241223;23;20369;-79
2023/03/10 00:36:17;;;;;;;15.75;12.70;;;7.30;99.90;;;;;;6240653;22;20361;-78
2023/03/10 00:38:45;;;;;;;14.30;11.93;;;7.20;99.90;;;;;;6240796;23;20377;-78
2023/03/10 00:41:14;;;;;;;17.02;12.30;;;7.20;99.90;;;;;;6216005;22;20377;-79
2023/03/10 00:43:42;;;;;;;15.40;11.68;;;7.10;99.90;;;;;;6242757;22;20365;-79
2023/03/10 00:46:09;;;;;;;14.38;10.88;;;7.00;99.90;;;;;;6240544;22;20369;-78
2023/03/10 00:48:36;;;;;;;15.57;11.77;;;7.00;99.90;;;;;;6240979;23;20388;-79
2023/03/10 00:51:04;;;;;;;16.60;12.07;;;7.00;99.90;;;;;;6241337;23;20703;-79
2023/03/10 00:53:34;;;;;;;14.57;11.55;;;7.00;99.90;;;;;;6240069;22;20401;-78
2023/03/10 00:56:04;;;;;;;20.60;15.00;;;7.10;99.90;;;;;;6241483;23;20396;-78
2023/03/10 00:58:32;;;;;;;15.98;12.50;;;7.10;99.90;;;;;;6239460;22;20369;-78
2023/03/10 01:00:59;;;;;;;18.02;12.90;;;7.10;99.90;;;;;;6241361;23;20365;-79
2023/03/10 01:03:27;;;;;;;17.08;11.25;;;7.00;99.90;;;;;;6240190;22;20369;-78
2023/03/10 01:05:54;;;;;;;16.05;11.55;;;7.10;99.90;;;;;;6242614;22;20768;-78
2023/03/10 01:08:22;;;;;;;15.30;11.43;;;7.10;99.90;;;;;;6239912;22;20432;-79
2023/03/10 01:10:49;;;;;;;11.77;10.10;;;7.10;99.90;;;;;;6240801;23;20389;-78
2023/03/10 01:13:17;;;;;;;15.23;11.38;;;7.10;99.90;;;;;;6240778;22;20866;-79
2023/03/10 01:15:46;;;;;;;12.93;10.35;;;7.10;99.90;;;;;;6240642;23;20793;-79
2023/03/10 01:18:14;;;;;;;14.55;11.10;;;7.10;99.90;;;;;;6240158;22;20365;-78
2023/03/10 01:20:42;;;;;;;13.73;10.63;;;7.10;99.90;;;;;;6240933;23;20369;-78
2023/03/10 01:23:29;;;;;;;13.77;11.15;;;7.10;99.90;;;;;;6242337;22;20444;-78
2023/03/10 01:25:56;;;;;;;15.98;11.32;;;7.10;99.90;;;;;;6239767;22;20444;-78
2023/03/10 01:28:23;;;;;;;13.38;10.65;;;7.20;99.90;;;;;;6241394;23;20468;-80
2023/03/10 01:30:50;;;;;;;13.85;11.30;;;7.10;99.90;;;;;;6239765;22;20385;-77
2023/03/10 01:33:17;;;;;;;12.88;10.50;;;7.10;99.90;;;;;;6239295;23;20391;-78
2023/03/10 01:35:44;;;;;;;12.90;9.30;;;7.10;99.90;;;;;;6239940;22;20376;-79
2023/03/10 01:38:11;;;;;;;13.37;10.93;;;7.10;99.90;;;;;;6240891;23;20392;-78
2023/03/10 01:40:39;;;;;;;17.15;11.82;;;7.10;99.90;;;;;;6239891;22;20373;-78
2023/03/10 01:43:27;;;;;;;15.07;11.27;;;7.10;99.90;;;;;;6241152;23;20369;-79
2023/03/10 01:46:00;;;;;;;15.52;12.27;;;7.10;99.90;;;;;;6239902;22;20387;-78
2023/03/10 01:48:34;;;;;;;14.50;11.38;;;7.10;99.90;;;;;;6241285;23;20368;-79
2023/03/10 01:51:02;;;;;;;14.05;11.38;;;7.10;99.90;;;;;;6241376;22;20827;-79
2023/03/10 01:53:29;;;;;;;17.02;12.95;;;7.00;99.90;;;;;;6240920;23;20388;-78
2023/03/10 01:56:02;;;;;;;14.63;11.35;;;6.80;99.90;;;;;;6240933;22;20408;-79
2023/03/10 01:58:36;;;;;;;13.25;11.07;;;6.80;99.90;;;;;;6240645;23;20431;-78
2023/03/10 02:01:04;;;;;;;13.23;10.80;;;6.70;99.90;;;;;;6240566;23;20365;-79
2023/03/10 04:16:13;;;;;;;10.82;8.02;;;5.70;99.90;;;;;;6192122;22;20418;-77
2023/03/10 04:18:40;;;;;;;14.00;8.40;;;5.60;99.90;;;;;;6240499;23;20365;-78
2023/03/10 04:21:07;;;;;;;11.53;8.33;;;5.60;99.90;;;;;;6240013;22;20400;-78
2023/03/10 04:23:34;;;;;;;10.43;8.00;;;5.60;99.90;;;;;;6241491;23;20523;-79
2023/03/10 04:26:06;;;;;;;16.02;10.02;;;5.60;99.90;;;;;;6239729;22;20369;-78
2023/03/10 04:28:33;;;;;;;12.95;9.18;;;5.60;99.90;;;;;;6241629;23;20372;-78
2023/03/10 04:31:00;;;;;;;11.40;8.38;;;5.70;99.90;;;;;;6239899;22;20373;-78
2023/03/10 04:33:27;;;;;;;9.50;6.38;;;5.80;99.90;;;;;;6240967;23;20365;-79
2023/03/10 04:35:54;;;;;;;9.10;5.90;;;5.70;99.90;;;;;;6241070;23;20464;-78
2023/03/10 04:38:24;;;;;;;9.07;6.35;;;5.60;99.90;;;;;;6241766;22;20365;-78
2023/03/10 04:40:57;;;;;;;33.13;21.88;;;5.60;99.90;;;;;;6240621;23;20373;-78
2023/03/10 04:43:24;;;;;;;27.90;19.73;;;5.60;99.90;;;;;;6239349;22;20459;-78
2023/03/10 04:45:51;;;;;;;19.83;13.20;;;5.60;99.90;;;;;;6240588;23;20388;-77
2023/03/10 04:48:18;;;;;;;10.18;7.13;;;5.60;99.90;;;;;;6240119;22;20369;-78
2023/03/10 04:50:53;;;;;;;8.43;5.78;;;5.70;99.90;;;;;;6241871;22;20373;-78
2023/03/10 04:53:19;;;;;;;8.30;5.82;;;5.70;99.90;;;;;;6241026;22;20450;-77
2023/03/10 04:55:46;;;;;;;6.72;5.00;;;5.70;99.90;;;;;;6241363;23;20422;-77
2023/03/10 04:58:13;;;;;;;7.00;4.70;;;5.70;99.90;;;;;;6240028;22;20376;-77
2023/03/10 05:00:40;;;;;;;7.47;4.85;;;5.60;99.90;;;;;;6241114;23;20444;-78
2023/03/10 05:03:26;;;;;;;6.78;4.75;;;5.60;99.90;;;;;;6240169;22;20369;-78
2023/03/10 05:05:53;;;;;;;4.75;3.85;;;5.60;99.90;;;;;;6240709;23;20377;-78
2023/03/10 05:08:20;;;;;;;5.28;3.92;;;5.60;99.90;;;;;;6239781;22;20396;-78
2023/03/10 05:10:47;;;;;;;6.65;3.83;;;5.50;99.90;;;;;;6240687;23;20388;-78
2023/03/10 05:13:14;;;;;;;5.88;4.50;;;5.50;99.90;;;;;;6239412;22;20397;-79
2023/03/10 05:15:41;;;;;;;5.82;3.90;;;5.50;99.90;;;;;;6241082;23;20750;-78
2023/03/10 05:18:09;;;;;;;6.97;4.70;;;5.40;99.90;;;;;;6239556;22;20377;-78
2023/03/10 05:20:37;;;;;;;5.13;4.00;;;5.40;99.90;;;;;;6241144;23;20384;-78
2023/03/10 05:23:04;;;;;;;4.90;4.35;;;5.30;99.90;;;;;;6239466;22;20789;-79
2023/03/10 05:25:31;;;;;;;5.07;3.83;;;5.30;99.90;;;;;;6240718;23;20448;-78
2023/03/10 05:27:58;;;;;;;4.72;3.67;;;5.30;99.90;;;;;;6240174;23;20369;-78
2023/03/10 05:30:25;;;;;;;6.70;4.35;;;5.40;99.90;;;;;;6239380;22;20738;-79
2023/03/10 05:32:52;;;;;;;4.88;4.30;;;5.40;99.90;;;;;;6240341;23;20376;-78
2023/03/10 05:35:18;;;;;;;6.82;4.85;;;5.40;99.90;;;;;;6238927;22;20369;-78
2023/03/10 05:37:45;;;;;;;4.28;3.47;;;5.40;99.90;;;;;;6240171;23;20400;-78
2023/03/10 05:40:18;;;;;;;5.33;4.00;;;5.50;99.90;;;;;;6239393;22;20369;-78
2023/03/10 05:42:46;;;;;;;5.90;4.25;;;5.50;99.90;;;;;;6240058;23;20373;-78
2023/03/10 05:45:13;;;;;;;6.63;5.63;;;5.50;99.90;;;;;;6239494;22;20440;-79
2023/03/10 05:47:41;;;;;;;6.80;5.22;;;5.50;99.90;;;;;;6240243;23;20380;-78
2023/03/10 05:50:09;;;;;;;6.65;5.13;;;5.50;99.90;;;;;;6239248;22;20440;-78
2023/03/10 05:52:38;;;;;;;6.50;5.43;;;5.50;99.90;;;;;;6242338;22;20376;-78
2023/03/10 05:55:07;;;;;;;9.20;7.00;;;5.60;99.90;;;;;;6238110;22;20376;-78
2023/03/10 05:57:34;;;;;;;10.37;7.60;;;5.70;99.90;;;;;;6240096;23;20423;-78
2023/03/10 06:00:00;;;;;;;9.68;7.30;;;5.70;99.90;;;;;;6239946;23;20373;-78
2023/03/10 06:02:27;;;;;;;13.45;9.27;;;5.80;99.90;;;;;;6239564;22;20437;-78
2023/03/10 06:04:54;;;;;;;13.98;9.52;;;5.90;99.90;;;;;;6240097;23;20738;-79
2023/03/10 06:07:21;;;;;;;14.73;9.63;;;6.00;99.90;;;;;;6239722;22;20427;-78
2023/03/10 06:09:48;;;;;;;15.20;9.90;;;6.00;99.90;;;;;;6241219;22;20475;-78
2023/03/10 06:12:15;;;;;;;12.88;8.82;;;6.10;99.90;;;;;;6239695;22;20388;-78
2023/03/10 06:14:41;;;;;;;9.07;6.13;;;6.20;99.90;;;;;;6239761;23;20384;-78
2023/03/10 06:17:08;;;;;;;7.75;5.38;;;6.30;99.90;;;;;;6239184;22;20365;-78
2023/03/10 06:19:35;;;;;;;7.57;4.53;;;6.40;99.90;;;;;;6239706;23;20381;-78
2023/03/10 06:22:02;;;;;;;6.15;4.07;;;6.40;99.90;;;;;;6240042;23;20423;-78
2023/03/10 06:24:29;;;;;;;5.80;4.70;;;6.40;99.90;;;;;;6238759;22;20396;-78
2023/03/10 06:26:56;;;;;;;5.45;3.90;;;6.40;99.90;;;;;;6241866;22;20758;-78
2023/03/10 06:29:23;;;;;;;10.40;5.70;;;6.40;99.90;;;;;;6238320;22;20390;-78
2023/03/10 06:31:50;;;;;;;7.35;5.20;;;6.40;99.90;;;;;;6239983;23;20365;-78
2023/03/10 06:34:17;;;;;;;6.40;4.97;;;6.40;99.90;;;;;;6239118;22;20751;-78
2023/03/10 06:36:44;;;;;;;8.57;5.40;;;6.40;99.90;;;;;;6240281;23;20436;-78
2023/03/10 06:39:11;;;;;;;6.28;5.00;;;6.50;99.90;;;;;;6239043;22;20369;-78
2023/03/10 06:41:38;;;;;;;7.03;5.88;;;6.50;99.90;;;;;;6240114;23;20369;-78
2023/03/10 06:44:05;;;;;;;6.18;5.47;;;6.60;99.90;;;;;;6239833;23;20369;-78
2023/03/10 06:46:32;;;;;;;6.68;5.47;;;6.70;99.90;;;;;;6239088;22;20393;-78
2023/03/10 06:48:59;;;;;;;7.93;6.70;;;6.80;99.90;;;;;;6239632;23;20854;-78
2023/03/10 06:51:25;;;;;;;7.93;5.22;;;6.90;99.90;;;;;;6239165;22;20388;-78
2023/03/10 06:53:53;;;;;;;7.90;5.60;;;6.90;99.90;;;;;;6239645;23;20365;-78
2023/03/10 06:56:21;;;;;;;7.97;5.95;;;7.00;99.90;;;;;;6239281;22;20373;-78
2023/03/10 06:58:48;;;;;;;9.13;6.40;;;7.10;99.90;;;;;;6239661;23;20369;-78
2023/03/10 07:01:30;;;;;;;9.23;6.47;;;7.10;99.90;;;;;;6239421;22;20388;-78
2023/03/10 07:03:58;;;;;;;8.05;6.00;;;7.10;99.90;;;;;;6241159;22;20376;-78
2023/03/10 07:06:26;;;;;;;8.60;5.57;;;7.20;99.90;;;;;;6238858;22;20415;-79
2023/03/10 07:08:53;;;;;;;8.88;6.25;;;7.30;99.90;;;;;;6242071;23;20388;-78
2023/03/10 07:11:20;;;;;;;7.43;5.55;;;7.30;99.90;;;;;;6240805;22;20439;-78
2023/03/10 07:13:47;;;;;;;8.98;5.95;;;7.40;99.90;;;;;;6241494;23;20403;-78
2023/03/10 07:16:15;;;;;;;10.57;6.33;;;7.50;99.90;;;;;;6240720;22;20377;-78
2023/03/10 07:18:42;;;;;;;9.75;7.13;;;7.60;99.90;;;;;;6241681;23;20684;-78
2023/03/10 07:21:11;;;;;;;10.65;7.40;;;7.70;99.90;;;;;;6241742;23;20431;-78
2023/03/10 07:23:38;;;;;;;9.20;6.55;;;7.80;99.90;;;;;;6240756;23;20452;-80
2023/03/10 07:26:07;;;;;;;10.10;6.88;;;7.80;99.90;;;;;;6241024;23;20799;-78
2023/03/10 07:28:36;;;;;;;10.75;7.28;;;7.90;99.90;;;;;;6241129;22;20405;-80
2023/03/10 07:31:08;;;;;;;13.57;10.73;;;7.90;99.90;;;;;;6241122;22;20373;-80
2023/03/10 07:33:37;;;;;;;12.75;10.07;;;8.00;99.90;;;;;;6240521;22;20423;-76
2023/03/10 07:36:10;;;;;;;10.27;8.50;;;8.10;99.90;;;;;;6241856;23;20381;-79
2023/03/10 07:38:38;;;;;;;12.68;9.10;;;8.20;99.90;;;;;;6215899;22;20392;-80
2023/03/10 07:41:06;;;;;;;11.15;7.93;;;8.20;99.90;;;;;;6239774;23;20421;-80
2023/03/10 07:43:34;;;;;;;11.68;9.30;;;8.20;99.90;;;;;;6242156;22;20873;-80
2023/03/10 07:46:04;;;;;;;12.60;9.07;;;8.30;99.90;;;;;;6241514;23;20440;-80
2023/03/10 07:48:31;;;;;;;12.80;9.57;;;8.30;99.90;;;;;;6240506;22;20375;-80
2023/03/10 07:50:59;;;;;;;11.98;8.27;;;8.40;99.90;;;;;;6239778;23;20404;-79
2023/03/10 07:53:26;;;;;;;13.13;9.10;;;8.50;99.90;;;;;;6239413;22;20377;-80
2023/03/10 07:55:53;;;;;;;13.55;9.68;;;8.60;99.90;;;;;;6242369;22;20890;-79
2023/03/10 07:58:21;;;;;;;11.60;8.40;;;8.70;99.90;;;;;;6239707;22;20892;-80
2023/03/10 08:00:56;;;;;;;11.65;7.88;;;8.80;99.90;;;;;;6240744;23;20384;-79
2023/03/10 08:03:25;;;;;;;10.43;7.75;;;9.00;99.90;;;;;;6239066;22;20900;-79
2023/03/10 08:05:52;;;;;;;10.73;6.22;;;9.20;99.90;;;;;;6240135;23;20392;-79
2023/03/10 08:08:19;;;;;;;6.43;3.63;;;9.30;99.90;;;;;;6239835;22;20448;-79
2023/03/10 08:10:46;;;;;;;2.78;1.38;;;9.40;99.90;;;;;;6240991;23;20441;-79
2023/03/10 08:13:13;;;;;;;2.47;0.80;;;9.60;99.90;;;;;;6243017;22;20372;-79
2023/03/10 08:15:40;;;;;;;3.00;0.80;;;9.90;99.90;;;;;;6240157;22;20365;-78
2023/03/10 08:18:11;;;;;;;2.35;0.75;;;10.20;99.90;;;;;;6240829;23;20373;-79
2023/03/10 08:20:39;;;;;;;1.42;0.38;;;10.60;99.90;;;;;;6241618;22;20858;-76
2023/03/10 08:23:06;;;;;;;1.00;0.40;;;11.00;97.90;;;;;;6241594;23;20373;-79
2023/03/10 08:25:33;;;;;;;1.05;0.50;;;11.40;93.60;;;;;;6239673;22;20707;-79
2023/03/10 08:28:00;;;;;;;0.70;0.30;;;11.70;92.00;;;;;;6241330;23;20369;-76
2023/03/10 08:30:27;;;;;;;0.88;0.30;;;11.90;90.20;;;;;;6239785;22;20770;-76
2023/03/10 08:32:54;;;;;;;0.43;0.20;;;12.10;90.00;;;;;;6241374;23;20373;-77
2023/03/10 08:35:21;;;;;;;0.90;0.30;;;12.30;81.50;;;;;;6240049;22;20699;-76
2023/03/10 08:37:50;;;;;;;0.70;0.20;;;12.50;79.10;;;;;;6241413;23;20360;-76
2023/03/10 08:40:20;;;;;;;0.70;0.30;;;12.50;77.10;;;;;;6239658;22;20381;-79
2023/03/10 08:42:47;;;;;;;1.55;0.30;;;12.50;75.30;;;;;;6240972;23;20369;-75
2023/03/10 08:45:14;;;;;;;0.50;0.20;;;12.50;74.30;;;;;;6240362;23;20377;-75
2023/03/10 08:47:41;;;;;;;0.75;0.35;;;12.50;75.90;;;;;;6228259;22;20392;-75
2023/03/10 08:50:09;;;;;;;0.40;0.30;;;12.60;76.50;;;;;;6241124;23;20459;-75
2023/03/10 08:52:36;;;;;;;1.10;0.30;;;12.60;74.80;;;;;;6240341;22;20447;-75
2023/03/10 08:55:04;;;;;;;1.00;0.38;;;12.60;73.20;;;;;;6240223;23;20374;-76
2023/03/10 08:57:31;;;;;;;0.45;0.30;;;12.70;72.00;;;;;;6239824;22;20369;-75
2023/03/10 08:59:58;;;;;;;0.65;0.20;;;12.80;73.20;;;;;;6240459;23;20364;-75
2023/03/10 09:02:28;;;;;;;0.50;0.20;;;12.80;74.00;;;;;;6239817;22;20387;-75
2023/03/10 09:04:55;;;;;;;0.40;0.20;;;12.90;74.10;;;;;;6242236;22;20449;-75
2023/03/10 09:07:22;;;;;;;1.02;0.20;;;12.90;73.60;;;;;;6239709;22;20419;-75
2023/03/10 09:09:49;;;;;;;1.50;0.20;;;13.10;71.70;;;;;;6240561;23;20369;-75
2023/03/10 09:12:15;;;;;;;1.10;0.30;;;13.10;69.00;;;;;;6240680;23;20388;-75
2023/03/10 09:14:42;;;;;;;2.10;0.28;;;13.30;69.00;;;;;;6239497;22;20365;-75
2023/03/10 09:17:09;;;;;;;1.30;0.33;;;13.30;67.40;;;;;;6240331;23;20448;-75
2023/03/10 09:19:37;;;;;;;1.02;0.20;;;13.40;68.60;;;;;;6239122;22;20413;-75
2023/03/10 09:22:04;;;;;;;0.75;0.20;;;13.50;67.00;;;;;;6240611;23;20389;-75
2023/03/10 09:24:31;;;;;;;0.43;0.20;;;13.60;64.20;;;;;;6239366;22;20691;-76
2023/03/10 09:26:59;;;;;;;0.60;0.13;;;13.70;64.40;;;;;;6242301;22;20469;-75
2023/03/10 09:29:25;;;;;;;0.22;0.10;;;13.70;64.90;;;;;;6214521;22;20425;-76
2023/03/10 09:32:08;;;;;;;0.85;0.10;;;13.70;63.00;;;;;;6240587;23;20408;-77
2023/03/10 09:34:36;;;;;;;1.20;0.17;;;13.70;62.00;;;;;;6241380;22;20403;-76
2023/03/10 09:37:03;;;;;;;2.58;0.30;;;13.80;61.30;;;;;;6240257;23;20380;-76
2023/03/10 09:39:33;;;;;;;0.82;0.10;;;13.80;61.20;;;;;;6239378;22;20738;-75
2023/03/10 09:42:26;;;;;;;0.28;0.10;;;13.80;61.00;;;;;;6240098;23;20392;-75
2023/03/10 09:45:20;;;;;;;0.73;0.20;;;13.70;60.60;;;;;;6239260;22;20392;-75
2023/03/10 09:48:07;;;;;;;0.20;0.10;;;13.70;61.00;;;;;;6239392;22;20377;-75
2023/03/10 09:50:42;;;;;;;0.28;0.10;;;13.70;61.50;;;;;;6240035;23;20419;-75
2023/03/10 09:53:33;;;;;;;0.90;0.10;;;13.60;61.80;;;;;;6239646;22;20758;-77
2023/03/10 09:56:03;;;;;;;0.30;0.10;;;13.60;61.90;;;;;;6239567;22;20412;-75
2023/03/10 09:58:56;;;;;;;0.53;0.10;;;13.70;61.60;;;;;;6239572;23;20826;-75
2023/03/10 10:01:27;;;;;;;0.60;0.10;;;13.80;61.40;;;;;;6240939;22;20441;-75
2023/03/10 10:04:17;;;;;;;0.40;0.10;;;13.80;60.80;;;;;;6240151;23;20396;-76
2023/03/10 10:06:46;;;;;;;0.88;0.20;;;13.90;60.50;;;;;;6209621;22;20440;-76
2023/03/10 10:09:24;;;;;;;0.30;0.28;;;14.10;61.40;;;;;;6240145;23;20408;-75
2023/03/10 10:11:51;;;;;;;0.32;0.20;;;14.20;60.40;;;;;;6239139;23;20423;-75
2023/03/10 10:14:23;;;;;;;1.45;0.20;;;14.40;60.30;;;;;;6239984;23;20407;-75
2023/03/10 10:17:18;;;;;;;1.10;0.20;;;14.60;59.00;;;;;;6239540;22;20815;-75
2023/03/10 10:19:46;;;;;;;0.60;0.10;;;14.70;58.50;;;;;;6238593;22;20711;-75
2023/03/10 10:22:26;;;;;;;1.00;0.20;;;14.90;57.50;;;;;;6239998;23;20457;-75
2023/03/10 10:25:09;;;;;;;0.47;0.10;;;15.00;57.30;;;;;;6238925;22;20365;-75
2023/03/10 10:27:37;;;;;;;0.20;0.10;;;15.10;56.20;;;;;;6238698;22;20365;-76
2023/03/10 10:30:26;;;;;;;0.40;0.10;;;15.10;56.30;;;;;;6240801;23;21021;-75
2023/03/10 10:32:58;;;;;;;0.80;0.20;;;15.10;54.80;;;;;;6239106;22;20397;-75
2023/03/10 10:35:29;;;;;;;0.60;0.08;;;15.00;54.70;;;;;;6239842;23;20369;-75
2023/03/10 10:38:10;;;;;;;0.50;0.10;;;15.10;54.80;;;;;;6240658;22;20388;-75
2023/03/10 10:41:06;;;;;;;0.20;0.10;;;15.20;55.00;;;;;;6238455;22;20370;-76
2023/03/10 10:43:43;;;;;;;0.70;0.10;;;15.10;53.80;;;;;;6241371;23;20875;-79
2023/03/10 10:46:12;;;;;;;0.30;0.10;;;15.10;53.30;;;;;;6241240;22;20396;-76
2023/03/10 10:48:50;;;;;;;1.10;0.10;;;15.00;53.60;;;;;;6242003;23;20412;-78
2023/03/10 10:51:26;;;;;;;0.50;0.10;;;15.00;54.20;;;;;;6240995;22;20372;-75
2023/03/10 10:53:53;;;;;;;0.80;0.10;;;15.00;54.20;;;;;;6240885;22;20749;-76
2023/03/10 10:56:22;;;;;;;0.10;0.00;;;15.20;53.70;;;;;;6243612;22;20388;-76
2023/03/10 10:59:21;;;;;;;0.95;0.10;;;15.30;54.90;;;;;;6242734;22;20806;-76
2023/03/10 11:01:57;;;;;;;0.63;0.20;;;15.40;54.00;;;;;;6241122;22;20886;-74
2023/03/10 11:04:27;;;;;;;0.15;0.00;;;15.50;54.10;;;;;;6240168;22;20435;-75
2023/03/10 11:07:18;;;;;;;0.10;0.05;;;15.70;53.60;;;;;;6241764;23;20699;-75
2023/03/10 11:09:46;;;;;;;1.05;0.10;;;15.80;51.90;;;;;;6240592;22;20428;-76
2023/03/10 11:12:20;;;;;;;0.10;0.07;;;16.00;51.00;;;;;;6241784;23;20373;-75
2023/03/10 11:15:06;;;;;;;0.50;0.00;;;16.10;49.80;;;;;;6242293;22;20361;-75
2023/03/10 11:17:59;;;;;;;3.10;0.10;;;16.20;50.30;;;;;;6240302;22;20396;-76
2023/03/10 11:20:41;;;;;;;0.68;0.10;;;16.50;49.40;;;;;;6240846;22;20381;-76
2023/03/10 11:23:33;;;;;;;0.20;0.10;;;16.60;48.20;;;;;;6242718;22;20375;-77
2023/03/10 11:26:10;;;;;;;0.20;0.10;;;16.80;46.70;;;;;;6240931;22;20415;-77
2023/03/10 11:29:06;;;;;;;0.50;0.03;;;17.00;47.00;;;;;;6240758;22;20452;-75
2023/03/10 11:31:47;;;;;;;0.73;0.10;;;17.00;46.70;;;;;;6241574;23;20376;-77
2023/03/10 11:34:31;;;;;;;0.08;0.00;;;17.10;47.80;;;;;;6240605;22;20749;-77
2023/03/10 11:37:28;;;;;;;0.00;0.00;;;17.30;45.80;;;;;;6240203;22;20403;-77
2023/03/10 11:40:33;;;;;;;0.10;0.03;;;17.40;45.70;;;;;;6240786;22;20524;-77
2023/03/10 11:43:24;;;;;;;0.55;0.00;;;17.50;46.10;;;;;;6240207;22;20369;-77
2023/03/10 11:45:53;;;;;;;0.20;0.08;;;17.70;45.00;;;;;;6240334;22;20365;-77
2023/03/10 11:48:36;;;;;;;0.65;0.10;;;17.90;44.50;;;;;;6241555;23;20365;-76
2023/03/10 11:51:04;;;;;;;0.70;0.20;;;17.90;43.50;;;;;;6240573;22;20377;-76
2023/03/10 11:53:43;;;;;;;0.10;0.00;;;18.00;43.80;;;;;;6240987;23;20396;-76
2023/03/10 11:56:15;;;;;;;0.50;0.20;;;18.00;43.10;;;;;;6240805;22;20373;-77
2023/03/10 11:58:56;;;;;;;0.40;0.10;;;18.10;43.50;;;;;;6216202;23;20370;-76
2023/03/10 12:01:42;;;;;;;0.00;0.00;;;18.20;43.60;;;;;;6240545;22;20364;-77
2023/03/10 12:04:35;;;;;;;0.10;0.00;;;18.30;44.40;;;;;;6240490;22;20750;-78
2023/03/10 12:07:36;;;;;;;0.03;0.00;;;18.50;43.10;;;;;;6240170;22;20384;-77
2023/03/10 12:10:12;;;;;;;0.10;0.00;;;18.70;43.20;;;;;;6215335;22;20385;-77
2023/03/10 12:12:42;;;;;;;0.15;0.00;;;18.90;43.00;;;;;;6241140;23;20831;-77
2023/03/10 12:15:32;;;;;;;0.10;0.00;;;19.00;44.60;;;;;;6240118;22;20369;-78
2023/03/10 12:18:01;;;;;;;0.50;0.00;;;19.00;42.70;;;;;;6240204;23;20399;-78
2023/03/10 12:20:29;;;;;;;0.08;0.00;;;19.00;42.10;;;;;;6240554;22;20678;-76
2023/03/10 12:23:25;;;;;;;0.10;0.03;;;18.90;40.80;;;;;;6241077;23;20373;-77
2023/03/10 12:25:52;;;;;;;0.10;0.00;;;18.50;41.90;;;;;;6220235;22;20838;-77
2023/03/10 12:28:23;;;;;;;0.20;0.00;;;18.60;42.20;;;;;;6239508;23;20407;-78
2023/03/10 12:30:57;;;;;;;0.82;0.08;;;18.70;41.90;;;;;;6239834;22;20376;-76
2023/03/10 12:33:33;;;;;;;0.10;0.00;;;18.80;44.20;;;;;;6239805;23;20369;-76
2023/03/10 12:36:40;;;;;;;0.13;0.00;;;18.80;43.60;;;;;;6239689;22;20392;-77
2023/03/10 12:39:30;;;;;;;0.13;0.00;;;18.60;43.20;;;;;;6236546;22;20837;-77
2023/03/10 12:42:00;;;;;;;0.20;0.10;;;18.40;41.40;;;;;;6239203;22;20448;-77
2023/03/10 12:44:48;;;;;;;0.30;0.10;;;18.10;42.10;;;;;;6240445;23;20381;-77
2023/03/10 12:47:51;;;;;;;0.38;0.10;;;18.10;42.40;;;;;;6239535;22;20742;-77
2023/03/10 12:50:40;;;;;;;0.22;0.10;;;18.00;43.60;;;;;;6195035;22;20423;-76
2023/03/10 12:53:10;;;;;;;0.50;0.20;;;17.90;45.90;;;;;;6240121;22;20373;-76
2023/03/10 12:55:40;;;;;;;0.20;0.00;;;17.90;44.50;;;;;;6240356;23;20396;-76
2023/03/10 12:58:37;;;;;;;0.20;0.00;;;17.90;45.40;;;;;;6239759;22;20750;-76
2023/03/10 13:01:09;;;;;;;0.20;0.10;;;18.20;44.60;;;;;;6209804;22;20435;-77
2023/03/10 13:03:44;;;;;;;0.10;0.00;;;18.50;44.50;;;;;;6240464;23;20668;-76
2023/03/10 13:06:19;;;;;;;0.40;0.10;;;18.70;42.90;;;;;;6239444;22;20515;-77
2023/03/10 13:08:54;;;;;;;0.30;0.10;;;19.00;40.70;;;;;;6240524;23;20444;-76
2023/03/10 13:12:00;;;;;;;0.20;0.08;;;19.00;41.00;;;;;;6240712;22;20436;-76
2023/03/10 13:14:41;;;;;;;0.60;0.00;;;19.10;40.50;;;;;;6238845;22;20682;-77
2023/03/10 13:17:23;;;;;;;0.20;0.10;;;19.30;39.90;;;;;;6239654;22;20830;-76
2023/03/10 13:20:04;;;;;;;0.40;0.10;;;19.50;40.60;;;;;;6240109;23;20706;-76
2023/03/10 13:22:32;;;;;;;0.08;0.08;;;19.50;40.40;;;;;;6239060;23;20396;-77
2023/03/10 13:25:03;;;;;;;0.60;0.10;;;19.50;37.90;;;;;;6215495;23;20438;-76
2023/03/10 13:27:33;;;;;;;0.20;0.03;;;19.40;39.60;;;;;;6239318;22;20376;-76
2023/03/10 13:30:12;;;;;;;0.20;0.10;;;19.40;39.10;;;;;;6240887;23;20450;-77
2023/03/10 13:32:40;;;;;;;0.20;0.10;;;19.40;38.90;;;;;;6239848;22;20836;-76
2023/03/10 13:35:23;;;;;;;0.43;0.03;;;19.30;37.90;;;;;;6240197;23;20377;-76
2023/03/10 13:38:09;;;;;;;0.10;0.10;;;19.20;38.60;;;;;;6239596;22;20512;-77
2023/03/10 13:40:45;;;;;;;0.17;0.10;;;19.20;38.90;;;;;;6239652;22;20388;-76
2023/03/10 13:43:35;;;;;;;0.15;0.10;;;19.20;39.80;;;;;;6240263;23;20388;-76
2023/03/10 13:46:13;;;;;;;0.60;0.10;;;19.50;38.90;;;;;;6241491;22;20365;-76
2023/03/10 13:48:42;;;;;;;0.20;0.10;;;19.70;37.90;;;;;;6238991;22;20377;-77
2023/03/10 13:51:22;;;;;;;0.30;0.05;;;19.90;38.40;;;;;;6237181;23;20381;-77
2023/03/10 13:53:53;;;;;;;0.90;0.28;;;20.10;36.50;;;;;;6238783;22;20427;-76
2023/03/10 13:56:31;;;;;;;0.20;0.07;;;20.20;36.20;;;;;;6241539;22;20404;-77
2023/03/10 13:59:01;;;;;;;0.30;0.03;;;20.30;35.40;;;;;;6239196;22;20432;-76
2023/03/10 14:01:44;;;;;;;0.37;0.10;;;20.30;36.00;;;;;;6239767;23;20438;-77
2023/03/10 14:04:35;;;;;;;0.50;0.10;;;20.40;35.80;;;;;;6239907;22;20819;-76
2023/03/10 14:07:19;;;;;;;0.60;0.10;;;20.50;35.60;;;;;;6238974;22;20452;-75
2023/03/10 14:10:04;;;;;;;2.03;0.45;;;20.70;34.80;;;;;;6239842;23;20376;-76
2023/03/10 14:12:44;;;;;;;0.27;0.10;;;20.80;33.50;;;;;;6238759;23;20435;-76
2023/03/10 14:15:37;;;;;;;0.00;0.00;;;20.90;34.50;;;;;;6239176;22;20426;-77
2023/03/10 14:18:07;;;;;;;0.33;0.10;;;20.90;32.80;;;;;;6239546;23;20385;-76
2023/03/10 14:20:42;;;;;;;0.13;0.10;;;20.70;33.10;;;;;;6239202;22;20838;-76
2023/03/10 14:23:18;;;;;;;0.25;0.03;;;20.70;33.00;;;;;;6241546;22;20453;-76
2023/03/10 14:25:47;;;;;;;0.10;0.00;;;20.40;32.60;;;;;;6238687;23;20439;-76
2023/03/10 14:28:31;;;;;;;0.10;0.00;;;20.30;33.50;;;;;;6215120;23;20403;-76
2023/03/10 14:31:01;;;;;;;0.20;0.10;;;20.10;33.70;;;;;;6238858;23;20365;-75
2023/03/10 14:33:28;;;;;;;0.60;0.10;;;19.80;34.30;;;;;;6241171;22;20380;-76
2023/03/10 14:35:55;;;;;;;0.38;0.10;;;19.60;34.10;;;;;;6239364;22;20361;-76
2023/03/10 14:38:22;;;;;;;0.15;0.08;;;19.40;34.20;;;;;;6240299;23;20379;-76
2023/03/10 14:40:53;;;;;;;0.17;0.00;;;19.20;34.30;;;;;;6238946;22;20369;-77
2023/03/10 14:43:26;;;;;;;0.70;0.00;;;18.90;34.90;;;;;;6240646;23;20424;-76
2023/03/10 14:45:55;;;;;;;0.47;0.00;;;18.60;35.00;;;;;;6239272;22;20431;-75
2023/03/10 14:48:24;;;;;;;0.90;0.10;;;18.40;35.60;;;;;;6241404;22;20376;-76
2023/03/10 14:50:52;;;;;;;0.10;0.00;;;18.30;34.70;;;;;;6238467;22;20373;-76
2023/03/10 14:53:24;;;;;;;1.25;0.30;;;18.20;34.40;;;;;;6239663;23;20426;-77
2023/03/10 14:55:54;;;;;;;1.00;0.47;;;18.20;34.70;;;;;;6238885;22;20373;-76
2023/03/10 14:58:28;;;;;;;0.20;0.10;;;18.00;33.70;;;;;;6241133;22;20892;-76
2023/03/10 15:00:55;;;;;;;0.10;0.05;;;18.00;34.10;;;;;;6239278;22;20361;-76
2023/03/10 15:03:22;;;;;;;0.57;0.20;;;17.90;34.90;;;;;;6241095;22;20392;-76
2023/03/10 15:05:49;;;;;;;0.30;0.10;;;17.80;34.70;;;;;;6239470;22;20443;-77
2023/03/10 15:08:16;;;;;;;0.43;0.10;;;17.80;33.90;;;;;;6239315;23;20366;-76
2023/03/10 15:10:46;;;;;;;0.40;0.20;;;17.80;33.80;;;;;;6239091;22;20373;-76
2023/03/10 15:13:16;;;;;;;0.10;0.10;;;17.70;33.60;;;;;;6214786;23;20702;-77
2023/03/10 15:15:45;;;;;;;0.70;0.20;;;17.70;33.20;;;;;;6239240;22;20783;-76
2023/03/10 15:18:15;;;;;;;0.20;0.00;;;17.60;33.00;;;;;;6238693;23;20377;-76
2023/03/10 15:20:42;;;;;;;0.70;0.30;;;17.60;32.60;;;;;;6238778;22;20447;-76
2023/03/10 15:23:09;;;;;;;0.50;0.20;;;17.50;32.00;;;;;;6239938;23;20757;-77
2023/03/10 15:25:41;;;;;;;1.25;0.15;;;17.50;32.40;;;;;;6238711;22;20373;-76
2023/03/10 15:28:10;;;;;;;0.40;0.10;;;17.50;31.80;;;;;;6240952;23;20380;-77